Accueil
METAR-TAF:

METAR-TAF

Aéroports :

Aéroport de Lamezia Terme

Lamezia Terme, Italie

latitude: 38-54N, longitude: 016-15E, altitude: 15 m

Observation

Le bulletin a été fait il y a 33 minutes, à 15:20 UTC
Vent 8 kt de est/nord-est
Température 12°C
Humidité 94%
Pression 1015 hPa
Visibilité 10 km ou plus

METAR: LICA 011520Z AUTO 06008KT 9999 NCD 12/11 Q1015

Heure: 16:53 (15:53 UTC)

Prévision

Le bulletin a été fait il y a 4 heures et 53 minutes, à 11:00 UTC
Prévision valable du 01 à 12 UTC au 02 à 12 UTC
Vent 14 kt de est/nord-est
Visibilité 10 km ou plus
Nuages épars à une hauteur de 2000 ft
Temporairement
du 01 à 12 UTC au 01 à 15 UTC
Visibilité: 4000 m
pluie

TAF: LICA 011100Z 0112/0212 06014KT 9999 SCT020 TEMPO 0112/0115 4000 RA

Observations et prévisions météorologiques de plus de 4000 aéroports (messages METAR et TAF).

Les stations disponibles sont représentées par des disques jaunes et rouges sur la carte.

Passer la souris dessus pour voir le nom de la station.

Cliquer dessus pour voir les observations et prévisions météorologiques.

Pour changer de carte: cliquez sur les boutons verts avec une croix noire pour zoomer, sur le bouton vert avec un tiret pour effectuer un zoom arrière, ou sur les flèches vertes pour les cartes adjacentes.


METAR-TAF: